Terminal Aerodrome Forecast
Issued by NWS

Current Version | Previous Version | Text Only | Print | Product List | Glossary Off
Versions: 1 2 3 4 5 6 7 8 9 10 11 12 13 14 15 16 17 18 19

000
FTUS41 KPBZ 180800 AAA
TAFHLG
TAF AMD
KHLG 180829Z 1808/1906 00000KT 2SM BR OVC060
      TEMPO 1808/1812 1/2SM FG OVC060
     FM181200 00000KT 4SM BR SKC
     FM181300 34005KT P6SM SKC=

USA.gov is the U.S. government's official web portal to all federal, state and local government web resources and services.